createdAt,value
2023-05-19T00:01:59.503Z,3.80
2023-05-19T00:04:27.811Z,3.70
2023-05-19T00:06:56.420Z,3.20
2023-05-19T00:09:24.257Z,3.30
2023-05-19T00:11:52.158Z,3.60
2023-05-19T00:14:20.211Z,3.80
2023-05-19T00:16:48.032Z,4.00
2023-05-19T00:19:15.657Z,3.80
2023-05-19T00:21:43.327Z,3.20
2023-05-19T00:24:11.082Z,3.70
2023-05-19T00:26:38.845Z,3.70
2023-05-19T00:29:06.474Z,3.60
2023-05-19T00:31:34.428Z,3.10
2023-05-19T00:34:02.321Z,3.10
2023-05-19T00:36:29.974Z,3.30
2023-05-19T00:38:57.589Z,3.80
2023-05-19T00:41:25.261Z,3.70
2023-05-19T00:43:52.986Z,3.40
2023-05-19T00:46:20.648Z,3.30
2023-05-19T00:48:48.356Z,3.50
2023-05-19T00:51:17.258Z,3.30
2023-05-19T00:53:46.535Z,4.50
2023-05-19T00:56:14.695Z,3.50
2023-05-19T00:58:42.450Z,3.20
2023-05-19T01:01:10.103Z,3.30
2023-05-19T01:03:38.915Z,3.40
2023-05-19T01:06:06.738Z,3.50
2023-05-19T01:08:37.651Z,3.10
2023-05-19T01:11:06.529Z,3.20
2023-05-19T01:13:36.323Z,3.20
2023-05-19T01:16:31.507Z,3.70
2023-05-19T01:19:05.164Z,3.50
2023-05-19T01:22:06.488Z,3.40
2023-05-19T01:24:49.054Z,3.60
2023-05-19T01:27:38.357Z,3.00
2023-05-19T01:30:42.153Z,3.60
2023-05-19T01:33:12.761Z,3.70
2023-05-19T01:35:42.327Z,3.40
2023-05-19T01:38:11.804Z,3.30
2023-05-19T01:40:41.335Z,3.00
2023-05-19T01:43:12.737Z,3.40
2023-05-19T01:45:41.049Z,3.40
2023-05-19T01:48:11.007Z,3.90
2023-05-19T01:50:42.663Z,3.10
2023-05-19T01:53:10.502Z,3.50
2023-05-19T01:55:50.058Z,3.30
2023-05-19T01:58:21.120Z,3.70
2023-05-19T02:01:03.388Z,2.80
2023-05-19T02:03:48.179Z,3.60
2023-05-19T02:06:46.267Z,3.30
2023-05-19T02:09:22.316Z,3.00
2023-05-19T02:11:56.355Z,3.00
2023-05-19T02:14:35.465Z,3.30
2023-05-19T02:17:04.901Z,4.10
2023-05-19T02:19:36.953Z,3.20
2023-05-19T02:22:04.926Z,3.20
2023-05-19T02:24:32.673Z,3.00
2023-05-19T02:27:00.338Z,3.30
2023-05-19T02:29:29.228Z,3.10
2023-05-19T02:31:56.873Z,2.90
2023-05-19T02:34:24.452Z,4.20
2023-05-19T02:36:52.034Z,3.90
2023-05-19T02:39:19.614Z,3.10
2023-05-19T02:41:47.223Z,3.50
2023-05-19T02:44:14.831Z,3.50
2023-05-19T02:46:42.553Z,3.50
2023-05-19T02:49:10.289Z,3.70
2023-05-19T02:51:37.972Z,3.30
2023-05-19T02:54:05.720Z,3.20
2023-05-19T02:56:33.340Z,3.60
2023-05-19T02:59:00.922Z,3.90
2023-05-19T03:01:28.762Z,4.20
2023-05-19T03:03:56.488Z,3.30
2023-05-19T03:06:24.288Z,3.40
2023-05-19T03:08:51.916Z,3.70
2023-05-19T03:11:19.500Z,4.00
2023-05-19T03:13:47.110Z,3.40
2023-05-19T03:16:14.803Z,3.90
2023-05-19T03:18:43.240Z,3.90
2023-05-19T03:21:10.840Z,3.70
2023-05-19T03:23:38.407Z,4.10
2023-05-19T03:26:05.981Z,3.90
2023-05-19T03:28:33.605Z,3.90
2023-05-19T03:31:01.225Z,4.10
2023-05-19T03:33:29.045Z,3.70
2023-05-19T03:35:57.381Z,3.70
2023-05-19T03:38:25.055Z,4.50
2023-05-19T03:40:52.666Z,3.70
2023-05-19T03:43:20.279Z,4.10
2023-05-19T03:45:48.132Z,3.80
2023-05-19T03:48:15.745Z,3.40
2023-05-19T03:50:43.351Z,3.90
2023-05-19T03:53:10.925Z,4.70
2023-05-19T03:55:39.065Z,4.70
2023-05-19T03:58:06.704Z,4.80
2023-05-19T04:00:34.467Z,4.30
2023-05-19T04:03:05.199Z,5.30
2023-05-19T04:05:32.937Z,4.90
2023-05-19T04:08:00.553Z,4.60
2023-05-19T04:10:28.487Z,5.20
2023-05-19T04:12:56.144Z,4.20
2023-05-19T04:15:23.833Z,4.80
2023-05-19T04:17:51.679Z,4.60
2023-05-19T04:20:19.422Z,4.70
2023-05-19T04:22:47.071Z,4.30
2023-05-19T04:25:14.811Z,4.60
2023-05-19T04:27:42.566Z,4.50
2023-05-19T04:30:10.754Z,4.80
2023-05-19T04:32:38.391Z,4.40
2023-05-19T04:35:06.212Z,4.10
2023-05-19T04:37:33.852Z,4.10
2023-05-19T04:40:01.586Z,5.10
2023-05-19T04:42:29.173Z,4.30
2023-05-19T04:44:56.748Z,4.50
2023-05-19T04:47:24.432Z,4.70
2023-05-19T04:49:52.069Z,5.50
2023-05-19T04:52:19.733Z,4.70
2023-05-19T04:54:47.486Z,4.70
2023-05-19T04:57:15.104Z,4.20
2023-05-19T04:59:42.783Z,5.00
2023-05-19T05:02:10.583Z,4.30
2023-05-19T05:04:38.374Z,4.50
2023-05-19T05:07:06.227Z,4.30
2023-05-19T05:09:33.986Z,4.50
2023-05-19T05:12:02.637Z,4.50
2023-05-19T05:14:30.553Z,5.00
2023-05-19T05:16:58.508Z,5.10
2023-05-19T05:19:26.509Z,4.60
2023-05-19T05:21:54.481Z,5.40
2023-05-19T05:24:22.677Z,4.40
2023-05-19T05:26:50.826Z,4.80
2023-05-19T05:29:19.909Z,5.30
2023-05-19T05:31:47.514Z,4.60
2023-05-19T05:34:15.273Z,4.20
2023-05-19T05:36:42.904Z,4.50
2023-05-19T05:39:10.476Z,4.60
2023-05-19T05:41:38.100Z,4.80
2023-05-19T05:44:05.793Z,4.60
2023-05-19T05:46:33.431Z,4.50
2023-05-19T05:49:01.695Z,4.60
2023-05-19T05:51:29.600Z,4.80
2023-05-19T05:53:57.795Z,5.00
2023-05-19T05:56:25.772Z,4.80
2023-05-19T05:58:53.581Z,4.70
2023-05-19T06:01:21.170Z,4.10
2023-05-19T06:03:48.858Z,5.50
2023-05-19T06:06:16.586Z,4.30
2023-05-19T06:08:44.189Z,4.70
2023-05-19T06:11:11.816Z,4.50
2023-05-19T06:13:39.907Z,4.80
2023-05-19T06:16:08.150Z,5.00
2023-05-19T06:18:35.923Z,4.70
2023-05-19T06:21:03.686Z,4.80
2023-05-19T06:23:31.293Z,5.40
2023-05-19T06:25:58.907Z,5.10
2023-05-19T06:28:26.640Z,5.40
2023-05-19T06:30:54.259Z,5.40
2023-05-19T06:33:21.816Z,5.90
2023-05-19T06:35:49.430Z,5.10
2023-05-19T06:38:17.846Z,5.30
2023-05-19T06:40:45.440Z,5.70
2023-05-19T06:43:13.010Z,4.30
2023-05-19T06:45:40.628Z,5.30
2023-05-19T06:48:08.273Z,6.20
2023-05-19T06:50:35.943Z,5.70
2023-05-19T06:53:03.634Z,5.40
2023-05-19T06:55:31.400Z,4.70
2023-05-19T06:57:59.013Z,5.70
2023-05-19T07:00:26.779Z,4.70
2023-05-19T07:02:54.413Z,4.50
2023-05-19T07:05:22.382Z,5.40
2023-05-19T07:07:49.979Z,5.00
2023-05-19T07:10:17.604Z,6.20
2023-05-19T07:12:45.183Z,5.00
2023-05-19T07:15:12.837Z,5.50
2023-05-19T07:17:40.570Z,5.50
2023-05-19T07:20:09.025Z,5.20
2023-05-19T07:22:37.341Z,6.20
2023-05-19T07:25:05.735Z,5.60
2023-05-19T07:27:33.558Z,11.40
2023-05-19T07:30:04.114Z,12.10
2023-05-19T07:32:31.716Z,9.10
2023-05-19T07:34:59.342Z,6.90
2023-05-19T07:37:27.206Z,5.50
2023-05-19T07:39:54.846Z,4.90
2023-05-19T07:42:22.491Z,4.80
2023-05-19T07:44:50.101Z,4.20
2023-05-19T07:47:17.756Z,4.90
2023-05-19T07:49:45.374Z,4.80
2023-05-19T07:52:13.118Z,4.60
2023-05-19T07:54:40.695Z,5.10
2023-05-19T07:57:08.410Z,5.10
2023-05-19T07:59:36.076Z,4.30
2023-05-19T08:02:03.885Z,5.40
2023-05-19T08:04:31.886Z,5.10
2023-05-19T08:06:59.568Z,4.30
2023-05-19T08:09:27.331Z,5.00
2023-05-19T08:11:55.024Z,5.60
2023-05-19T08:14:22.641Z,4.60
2023-05-19T08:16:50.332Z,5.40
2023-05-19T08:19:18.077Z,5.30
2023-05-19T08:21:45.732Z,4.90
2023-05-19T08:24:13.362Z,4.50
2023-05-19T08:26:40.982Z,3.70
2023-05-19T08:29:08.564Z,4.50
2023-05-19T08:31:36.210Z,3.70
2023-05-19T08:34:03.832Z,3.00
2023-05-19T08:36:31.450Z,4.00
2023-05-19T08:38:59.121Z,3.70
2023-05-19T08:41:26.689Z,4.40
2023-05-19T08:43:54.608Z,5.30
2023-05-19T08:46:25.307Z,4.20
2023-05-19T08:49:09.363Z,3.90
2023-05-19T08:51:42.930Z,7.90
2023-05-19T08:54:17.555Z,7.50
2023-05-19T08:56:45.445Z,6.20
2023-05-19T08:59:17.174Z,4.20
2023-05-19T09:01:46.230Z,3.80
2023-05-19T09:04:15.594Z,3.20
2023-05-19T09:06:43.347Z,3.50
2023-05-19T09:09:11.614Z,3.40
2023-05-19T09:11:39.238Z,3.60
2023-05-19T09:14:06.883Z,3.30
2023-05-19T09:16:34.839Z,3.20
2023-05-19T09:19:02.605Z,3.90
2023-05-19T09:21:31.416Z,3.30
2023-05-19T09:24:05.124Z,3.80
2023-05-19T09:26:40.905Z,3.40
2023-05-19T09:31:39.643Z,5.40
2023-05-19T09:34:12.795Z,5.90
2023-05-19T09:36:41.068Z,5.10
2023-05-19T09:39:18.822Z,5.30
2023-05-19T09:41:47.295Z,5.90
2023-05-19T09:44:20.618Z,5.30
2023-05-19T09:46:51.944Z,4.70
2023-05-19T09:49:24.023Z,3.70
2023-05-19T09:51:51.602Z,4.00
2023-05-19T09:54:21.415Z,4.10
2023-05-19T09:56:59.390Z,3.80
2023-05-19T09:59:30.543Z,3.10
2023-05-19T10:02:00.802Z,4.00
2023-05-19T10:04:30.814Z,3.70
2023-05-19T10:06:59.333Z,3.50
2023-05-19T10:09:29.127Z,3.50
2023-05-19T10:11:59.129Z,3.40
2023-05-19T10:14:28.912Z,3.80
2023-05-19T10:16:58.306Z,3.80
2023-05-19T10:19:27.919Z,4.00
2023-05-19T10:24:24.030Z,4.80
2023-05-19T10:27:06.224Z,5.70
2023-05-19T10:29:37.754Z,4.10
2023-05-19T10:32:14.761Z,4.70
2023-05-19T10:35:20.159Z,4.10
2023-05-19T10:37:58.721Z,4.40
2023-05-19T10:40:33.598Z,4.50
2023-05-19T10:43:19.917Z,4.90
2023-05-19T10:45:58.582Z,3.80
2023-05-19T10:48:33.621Z,4.00
2023-05-19T10:51:01.690Z,4.00
2023-05-19T10:53:33.174Z,5.10
2023-05-19T10:56:04.361Z,5.60
2023-05-19T10:58:48.767Z,5.20
2023-05-19T11:01:18.029Z,3.60
2023-05-19T11:03:49.546Z,4.20
2023-05-19T11:06:28.129Z,3.80
2023-05-19T11:09:00.411Z,3.50
2023-05-19T11:11:46.615Z,3.70
2023-05-19T11:14:18.413Z,4.20
2023-05-19T11:16:50.671Z,3.80
2023-05-19T11:19:28.811Z,3.70
2023-05-19T11:21:57.831Z,3.60
2023-05-19T11:24:34.296Z,3.20
2023-05-19T11:27:20.561Z,3.20
2023-05-19T11:29:49.216Z,3.30
2023-05-19T11:32:17.895Z,4.10
2023-05-19T11:34:45.530Z,3.40
2023-05-19T11:37:13.139Z,3.10
2023-05-19T11:39:41.040Z,2.90
2023-05-19T11:42:09.057Z,3.60
2023-05-19T11:44:36.774Z,3.10
2023-05-19T11:47:05.577Z,3.70
2023-05-19T11:49:33.518Z,3.80
2023-05-19T11:52:01.276Z,4.30
2023-05-19T11:54:33.590Z,3.90
2023-05-19T11:57:05.093Z,3.20
2023-05-19T11:59:35.580Z,4.30
2023-05-19T12:02:14.840Z,3.50
2023-05-19T12:04:43.036Z,3.20
2023-05-19T12:07:11.656Z,3.60
2023-05-19T12:09:39.964Z,3.80
2023-05-19T12:12:07.824Z,3.50
2023-05-19T12:14:35.743Z,4.00
2023-05-19T12:17:17.505Z,3.60
2023-05-19T12:19:46.571Z,3.70
2023-05-19T12:22:16.232Z,3.50
2023-05-19T12:24:45.031Z,3.80
2023-05-19T12:27:12.595Z,3.50
2023-05-19T12:29:40.887Z,3.70
2023-05-19T12:32:09.386Z,4.40
2023-05-19T12:34:38.474Z,4.20
2023-05-19T12:37:06.129Z,4.20
2023-05-19T12:39:33.877Z,4.40
2023-05-19T12:42:07.967Z,3.90
2023-05-19T12:44:49.285Z,4.40
2023-05-19T12:47:18.301Z,5.40
2023-05-19T12:50:07.144Z,5.40
2023-05-19T12:52:42.738Z,6.10
2023-05-19T12:55:10.936Z,5.20
2023-05-19T12:57:43.154Z,5.40
2023-05-19T13:00:16.670Z,4.80
2023-05-19T13:03:04.704Z,5.70
2023-05-19T13:05:38.289Z,6.70
2023-05-19T13:08:12.658Z,6.50
2023-05-19T13:10:42.359Z,5.40
2023-05-19T13:13:10.683Z,6.30
2023-05-19T13:15:41.568Z,6.30
2023-05-19T13:18:10.463Z,7.20
2023-05-19T13:20:39.449Z,6.50
2023-05-19T13:23:07.438Z,6.00
2023-05-19T13:25:35.356Z,6.20
2023-05-19T13:28:04.001Z,6.10
2023-05-19T13:30:33.029Z,6.70
2023-05-19T13:33:00.911Z,6.70
2023-05-19T13:35:28.743Z,7.60
2023-05-19T13:37:56.383Z,6.80
2023-05-19T13:40:24.093Z,5.90
2023-05-19T13:42:51.792Z,7.40
2023-05-19T13:45:19.532Z,7.30
2023-05-19T13:47:47.265Z,7.30
2023-05-19T13:50:14.940Z,10.70
2023-05-19T13:52:42.710Z,7.10
2023-05-19T13:55:10.330Z,7.10
2023-05-19T13:57:37.972Z,7.60
2023-05-19T14:00:06.563Z,7.90
2023-05-19T14:02:34.387Z,7.20
2023-05-19T14:05:02.145Z,7.10
2023-05-19T14:07:30.008Z,8.30
2023-05-19T14:09:57.648Z,8.50
2023-05-19T14:12:35.387Z,7.80
2023-05-19T14:15:09.090Z,9.00
2023-05-19T14:17:37.456Z,8.40
2023-05-19T14:20:05.989Z,8.40
2023-05-19T14:22:33.627Z,8.20
2023-05-19T14:25:02.089Z,8.20
2023-05-19T14:27:29.735Z,8.90
2023-05-19T14:29:57.491Z,8.40
2023-05-19T14:32:26.290Z,8.30
2023-05-19T14:34:54.935Z,8.80
2023-05-19T14:37:22.568Z,7.50
2023-05-19T14:39:50.186Z,7.50
2023-05-19T14:42:17.777Z,7.10
2023-05-19T14:44:45.436Z,8.20
2023-05-19T14:47:13.256Z,8.50
2023-05-19T14:49:41.047Z,7.90
2023-05-19T14:52:08.615Z,10.10
2023-05-19T14:54:36.240Z,10.30
2023-05-19T14:57:04.084Z,9.00
2023-05-19T14:59:31.679Z,9.40
2023-05-19T15:01:59.337Z,11.30
2023-05-19T15:04:27.316Z,10.50
2023-05-19T15:07:05.670Z,10.00
2023-05-19T15:09:37.882Z,11.90
2023-05-19T15:12:05.959Z,10.30
2023-05-19T15:14:33.622Z,8.50
2023-05-19T15:17:04.385Z,9.50
2023-05-19T15:19:34.261Z,10.20
2023-05-19T15:22:02.224Z,10.30
2023-05-19T15:24:29.901Z,10.30
2023-05-19T15:26:57.561Z,11.10
2023-05-19T15:29:28.118Z,10.90
2023-05-19T15:31:55.754Z,10.00
2023-05-19T15:34:23.405Z,10.10
2023-05-19T15:36:51.101Z,8.90
2023-05-19T15:39:18.752Z,9.40
2023-05-19T15:41:46.412Z,8.70
2023-05-19T15:44:14.044Z,8.50
2023-05-19T15:46:41.708Z,10.30
2023-05-19T15:49:09.497Z,9.10
2023-05-19T15:51:40.534Z,8.70
2023-05-19T15:54:08.128Z,8.80
2023-05-19T15:56:35.784Z,10.00
2023-05-19T15:59:03.469Z,10.80
2023-05-19T16:01:34.113Z,8.70
2023-05-19T16:04:01.962Z,8.20
2023-05-19T16:06:30.330Z,8.00
2023-05-19T16:08:57.993Z,7.50
2023-05-19T16:11:25.601Z,7.50
2023-05-19T16:13:53.209Z,8.60
2023-05-19T16:16:20.873Z,7.80
2023-05-19T16:18:48.592Z,8.30
2023-05-19T16:21:16.338Z,8.50
2023-05-19T16:23:44.142Z,8.30
2023-05-19T16:26:11.841Z,8.00
2023-05-19T16:28:39.449Z,8.20
2023-05-19T16:31:09.074Z,11.20
2023-05-19T16:33:36.672Z,9.80
2023-05-19T16:36:04.564Z,11.80
2023-05-19T16:38:32.236Z,14.50
2023-05-19T16:40:59.842Z,12.30
2023-05-19T16:43:27.580Z,9.20
2023-05-19T16:45:55.246Z,10.20
2023-05-19T16:48:22.877Z,11.60
2023-05-19T16:50:50.462Z,8.50
2023-05-19T16:53:18.063Z,10.90
2023-05-19T16:55:45.652Z,13.30
2023-05-19T16:58:13.282Z,11.40
2023-05-19T17:00:40.873Z,11.30
2023-05-19T17:03:08.556Z,11.80
2023-05-19T17:05:36.265Z,9.20
2023-05-19T17:08:04.029Z,11.20
2023-05-19T17:10:31.813Z,11.30
2023-05-19T17:12:59.553Z,13.00
2023-05-19T17:15:27.325Z,10.20
2023-05-19T17:17:54.968Z,10.40
2023-05-19T17:20:22.595Z,10.40
2023-05-19T17:22:50.168Z,7.60
2023-05-19T17:25:17.767Z,9.80
2023-05-19T17:27:45.385Z,9.80
2023-05-19T17:30:13.825Z,9.30
2023-05-19T17:32:41.467Z,9.80
2023-05-19T17:35:09.293Z,9.70
2023-05-19T17:37:36.960Z,9.50
2023-05-19T17:40:05.212Z,8.80
2023-05-19T17:42:32.850Z,9.90
2023-05-19T17:45:00.463Z,10.40
2023-05-19T17:47:28.264Z,8.70
2023-05-19T17:49:55.866Z,13.00
2023-05-19T17:52:23.807Z,12.80
2023-05-19T17:54:51.719Z,12.30
2023-05-19T17:57:24.604Z,9.30
2023-05-19T17:59:53.668Z,10.00
2023-05-19T18:02:21.486Z,10.90
2023-05-19T18:04:49.514Z,14.80
2023-05-19T18:07:17.975Z,16.40
2023-05-19T18:09:46.075Z,12.50
2023-05-19T18:12:14.075Z,14.20
2023-05-19T18:14:41.871Z,15.80
2023-05-19T18:17:09.569Z,12.50
2023-05-19T18:19:37.255Z,16.20
2023-05-19T18:22:05.322Z,12.60
2023-05-19T18:24:33.019Z,26.20
2023-05-19T18:27:00.706Z,90.90
2023-05-19T18:29:28.552Z,40.30
2023-05-19T18:31:56.264Z,28.20
2023-05-19T18:34:23.909Z,19.90
2023-05-19T18:36:51.634Z,47.70
2023-05-19T18:39:19.302Z,27.20
2023-05-19T18:41:47.048Z,23.20
2023-05-19T18:44:15.943Z,15.90
2023-05-19T18:46:43.560Z,14.90
2023-05-19T18:49:11.835Z,14.80
2023-05-19T18:51:39.746Z,13.30
2023-05-19T18:54:07.571Z,21.20
2023-05-19T18:56:35.207Z,16.60
2023-05-19T18:59:02.886Z,14.50
2023-05-19T19:01:30.548Z,12.50
2023-05-19T19:03:58.257Z,13.00
2023-05-19T19:06:25.946Z,12.90
2023-05-19T19:08:53.732Z,15.80
2023-05-19T19:11:23.492Z,12.90
2023-05-19T19:13:51.452Z,13.90
2023-05-19T19:16:19.277Z,10.80
2023-05-19T19:18:50.012Z,8.80
2023-05-19T19:21:17.878Z,9.60
2023-05-19T19:23:45.853Z,7.70
2023-05-19T19:26:14.006Z,8.70
2023-05-19T19:28:41.920Z,7.70
2023-05-19T19:31:12.168Z,8.40
2023-05-19T19:33:39.801Z,8.00
2023-05-19T19:36:07.539Z,8.20
2023-05-19T19:38:35.369Z,8.40
2023-05-19T19:41:03.421Z,7.80
2023-05-19T19:43:31.114Z,8.70
2023-05-19T19:46:02.783Z,11.00
2023-05-19T19:48:30.418Z,9.70
2023-05-19T19:50:58.145Z,10.40
2023-05-19T19:53:25.858Z,10.70
2023-05-19T19:56:00.543Z,11.60
2023-05-19T19:58:28.854Z,6.90
2023-05-19T20:01:02.019Z,9.60
2023-05-19T20:03:31.850Z,10.00
2023-05-19T20:08:27.563Z,20.20
2023-05-19T20:10:57.024Z,13.10
2023-05-19T20:13:24.808Z,13.00
2023-05-19T20:15:52.822Z,8.70
2023-05-19T20:18:20.541Z,9.60
2023-05-19T20:20:48.203Z,9.90
2023-05-19T20:23:15.812Z,10.80
2023-05-19T20:25:58.445Z,6.80
2023-05-19T20:28:30.639Z,9.60
2023-05-19T20:30:58.262Z,11.90
2023-05-19T20:33:25.869Z,9.80
2023-05-19T20:35:53.456Z,10.70
2023-05-19T20:38:21.032Z,10.10
2023-05-19T20:40:48.651Z,11.70
2023-05-19T20:43:16.455Z,11.10
2023-05-19T20:45:44.486Z,13.70
2023-05-19T20:48:12.234Z,15.10
2023-05-19T20:50:39.986Z,10.50
2023-05-19T20:53:07.640Z,11.80
2023-05-19T20:55:38.640Z,11.70
2023-05-19T20:58:06.360Z,11.30
2023-05-19T21:00:34.123Z,16.60
2023-05-19T21:03:02.268Z,18.30
2023-05-19T21:05:30.123Z,11.10
2023-05-19T21:07:57.822Z,10.90
2023-05-19T21:10:25.442Z,14.00
2023-05-19T21:12:53.062Z,12.00
2023-05-19T21:15:20.668Z,10.20
2023-05-19T21:17:48.384Z,11.60
2023-05-19T21:20:16.030Z,11.70
2023-05-19T21:22:43.649Z,10.10
2023-05-19T21:25:11.369Z,7.60
2023-05-19T21:27:38.962Z,10.30
2023-05-19T21:30:07.196Z,12.00
2023-05-19T21:32:34.978Z,9.60
2023-05-19T21:35:02.887Z,10.00
2023-05-19T21:37:30.480Z,13.00
2023-05-19T21:39:58.095Z,9.80
2023-05-19T21:42:25.768Z,10.90
2023-05-19T21:44:56.153Z,8.80
2023-05-19T21:47:23.746Z,7.90
2023-05-19T21:49:51.349Z,10.90
2023-05-19T21:52:18.961Z,9.30
2023-05-19T21:54:46.740Z,10.50
2023-05-19T21:57:14.342Z,9.50
2023-05-19T21:59:41.932Z,10.20
2023-05-19T22:02:09.630Z,9.70
2023-05-19T22:04:37.374Z,10.80
2023-05-19T22:07:06.232Z,11.10
2023-05-19T22:09:33.848Z,10.80
2023-05-19T22:12:01.605Z,11.80
2023-05-19T22:14:29.186Z,11.00
2023-05-19T22:16:56.885Z,11.30
2023-05-19T22:19:24.740Z,10.70
2023-05-19T22:22:01.966Z,11.70
2023-05-19T22:24:37.946Z,12.40
2023-05-19T22:27:08.323Z,13.40
2023-05-19T22:29:36.803Z,12.50
2023-05-19T22:32:08.420Z,10.20
2023-05-19T22:34:36.024Z,11.30
2023-05-19T22:37:03.753Z,15.60
2023-05-19T22:39:31.539Z,17.00
2023-05-19T22:41:59.118Z,12.00
2023-05-19T22:44:27.100Z,14.10
2023-05-19T22:46:54.831Z,17.30
2023-05-19T22:49:22.513Z,22.20
2023-05-19T22:51:50.264Z,16.90
2023-05-19T22:54:18.037Z,13.50
2023-05-19T22:56:46.484Z,14.10
2023-05-19T22:59:14.956Z,12.50
2023-05-19T23:01:42.552Z,13.40
2023-05-19T23:04:12.473Z,12.60
2023-05-19T23:06:40.208Z,12.10
2023-05-19T23:09:07.806Z,11.60
2023-05-19T23:11:35.429Z,13.70
2023-05-19T23:14:03.219Z,10.90
2023-05-19T23:16:32.111Z,11.60
2023-05-19T23:18:59.891Z,14.00
2023-05-19T23:21:27.648Z,13.70
2023-05-19T23:23:55.265Z,18.10
2023-05-19T23:26:23.202Z,14.40
2023-05-19T23:28:50.809Z,14.30
2023-05-19T23:31:18.546Z,14.10
2023-05-19T23:33:46.199Z,21.50
2023-05-19T23:36:14.148Z,18.30
2023-05-19T23:38:41.797Z,15.10
2023-05-19T23:41:09.469Z,14.30
2023-05-19T23:43:37.075Z,14.30
2023-05-19T23:46:04.916Z,11.80
2023-05-19T23:48:32.491Z,13.20
2023-05-19T23:51:02.190Z,12.20
2023-05-19T23:53:29.741Z,12.90
2023-05-19T23:56:00.542Z,12.40
2023-05-19T23:58:28.311Z,12.00
